Time;durP1;ratioP1;P1;durP2;ratioP2;P2;SDS_P1;SDS_P2;PMS_P1;PMS_P2;Temp;Humidity;BMP_temperature;BMP_pressure;BME280_temperature;BME280_humidity;BME280_pressure;Samples;Min_cycle;Max_cycle;Signal;HPM_P1;HPM_P2
2022/08/05 00:00:21;;;;;;;75.03;71.18;;;;;;;28.41;38.94;101362.47;4879570;29;20069;-67
2022/08/05 00:02:47;;;;;;;75.75;72.05;;;;;;;28.38;39.35;101355.66;4879909;29;20048;-67
2022/08/05 00:05:13;;;;;;;74.95;71.03;;;;;;;28.36;39.25;101359.94;4879878;29;20059;-67
2022/08/05 00:07:38;;;;;;;76.20;72.55;;;;;;;28.33;39.20;101361.44;4894057;29;20029;-67
2022/08/05 00:10:04;;;;;;;77.10;73.15;;;;;;;28.32;39.18;101364.56;4880015;29;20033;-67
2022/08/05 00:12:29;;;;;;;82.32;78.47;;;;;;;28.29;39.43;101366.06;4880160;29;20462;-67
2022/08/05 00:14:55;;;;;;;74.85;71.03;;;;;;;28.27;39.37;101365.59;4879951;29;20065;-67
2022/08/05 00:17:20;;;;;;;76.68;72.78;;;;;;;28.24;39.32;101361.53;4880438;29;20050;-67
2022/08/05 00:19:46;;;;;;;73.72;70.18;;;;;;;28.22;39.04;101368.59;4879629;29;20478;-67
2022/08/05 00:22:11;;;;;;;77.57;73.97;;;;;;;28.18;39.33;101365.72;4880196;29;20351;-67
2022/08/05 00:24:36;;;;;;;76.72;72.72;;;;;;;28.17;39.35;101372.44;4880072;29;20069;-67
2022/08/05 00:27:02;;;;;;;75.22;71.50;;;;;;;28.14;39.64;101372.31;4879410;29;20044;-67
2022/08/05 00:29:27;;;;;;;75.70;72.15;;;;;;;28.13;39.22;101387.38;4879830;29;20510;-67
2022/08/05 00:31:54;;;;;;;75.32;71.38;;;;;;;28.09;39.45;101387.25;4880114;29;20049;-67
2022/08/05 00:34:19;;;;;;;75.70;71.82;;;;;;;28.08;39.49;101387.59;4879621;29;20037;-67
2022/08/05 00:36:45;;;;;;;74.38;70.80;;;;;;;28.05;39.70;101383.56;4879524;29;20053;-67
2022/08/05 00:39:11;;;;;;;75.32;71.32;;;;;;;28.02;39.50;101373.94;4879563;29;20068;-67
2022/08/05 00:41:36;;;;;;;74.68;70.72;;;;;;;27.99;39.67;101374.63;4879419;29;20029;-67
2022/08/05 00:44:02;;;;;;;78.20;74.30;;;;;;;27.97;39.60;101376.97;4879940;29;20045;-67
2022/08/05 00:46:27;;;;;;;78.50;74.75;;;;;;;27.96;39.60;101372.53;4879387;29;20043;-67
2022/08/05 00:48:53;;;;;;;71.00;67.68;;;;;;;27.94;39.49;101382.38;4879486;29;20041;-67
2022/08/05 00:51:20;;;;;;;74.00;70.43;;;;;;;27.92;39.64;101381.91;4879373;29;20029;-67
2022/08/05 00:53:46;;;;;;;74.28;70.50;;;;;;;27.90;39.81;101381.47;4878939;29;20049;-67
2022/08/05 00:56:13;;;;;;;73.60;70.25;;;;;;;27.87;39.55;101384.91;4879446;29;20040;-67
2022/08/05 00:58:39;;;;;;;75.63;71.87;;;;;;;27.84;39.73;101386.41;4879285;29;20036;-67
2022/08/05 01:01:04;;;;;;;76.25;72.35;;;;;;;27.83;39.91;101401.47;4879379;29;20037;-67
2022/08/05 01:03:30;;;;;;;77.60;73.90;;;;;;;27.80;39.58;101405.69;4879414;29;20069;-67
2022/08/05 01:05:55;;;;;;;72.55;68.70;;;;;;;27.78;40.04;101421.88;4879608;29;20048;-67
2022/08/05 01:08:21;;;;;;;75.75;71.93;;;;;;;27.77;39.77;101425.00;4879307;29;20049;-67
2022/08/05 01:10:59;;;;;;;74.03;70.55;;;;;;;27.75;40.00;101433.69;4879139;29;20068;-67
2022/08/05 01:13:24;;;;;;;;;;;;;;;27.71;39.44;101438.28;4879959;29;20541;-67
2022/08/05 01:15:58;;;;;;;71.87;68.50;;;;;;;27.68;39.81;101438.16;4895473;29;19908;-67
2022/08/05 01:18:31;;;;;;;73.47;69.97;;;;;;;27.66;39.86;101444.06;4882908;29;20257;-67
2022/08/05 01:21:15;;;;;;;72.80;68.68;;;;;;;27.63;39.59;101451.09;4882707;29;20041;-67
2022/08/05 01:24:14;;;;;;;71.47;68.07;;;;;;;27.61;40.13;101445.06;4882444;29;20393;-67
2022/08/05 01:27:10;;;;;;;73.88;69.88;;;;;;;27.58;39.71;101444.97;4882748;29;20541;-67
2022/08/05 01:29:40;;;;;;;73.57;69.78;;;;;;;27.55;39.77;101440.91;4882971;29;20036;-68
2022/08/05 01:32:10;;;;;;;73.28;69.75;;;;;;;27.52;39.85;101436.03;4882386;29;20029;-67
2022/08/05 01:35:04;;;;;;;74.00;70.30;;;;;;;27.51;39.68;101426.06;4882887;29;20037;-67
2022/08/05 01:37:46;;;;;;;71.45;67.57;;;;;;;27.49;40.40;101430.34;4882400;29;20033;-67
2022/08/05 01:40:14;;;;;;;70.43;66.68;;;;;;;27.46;40.29;101422.72;4882327;29;20033;-68
2022/08/05 01:42:43;;;;;;;73.38;69.72;;;;;;;27.44;40.25;101408.38;4882106;29;20040;-68
2022/08/05 01:45:09;;;;;;;69.15;65.80;;;;;;;27.43;40.20;101412.31;4880803;29;20077;-67
2022/08/05 01:47:37;;;;;;;72.35;68.55;;;;;;;27.40;39.99;101405.47;4882396;29;20040;-68
2022/08/05 01:50:05;;;;;;;75.40;71.72;;;;;;;27.38;39.99;101403.03;4882116;29;20029;-68
2022/08/05 01:52:35;;;;;;;72.20;68.57;;;;;;;27.36;40.04;101408.09;4882023;29;20177;-67
2022/08/05 01:55:05;;;;;;;69.20;65.90;;;;;;;27.35;40.00;101400.94;4882096;29;20084;-67
2022/08/05 01:57:35;;;;;;;70.05;66.55;;;;;;;27.32;39.90;101398.06;4882284;29;20029;-68
2022/08/05 02:00:03;;;;;;;68.03;64.43;;;;;;;27.30;39.77;101386.47;4882424;29;20172;-67
2022/08/05 02:02:30;;;;;;;;;;;;;;;27.27;39.71;101376.06;4880630;29;20052;-67
2022/08/05 02:04:59;;;;;;;68.50;65.20;;;;;;;27.24;40.17;101365.63;4881625;29;19919;-67
2022/08/05 02:07:25;;;;;;;67.93;64.25;;;;;;;27.22;39.87;101373.50;4882593;29;20044;-67
2022/08/05 02:09:51;;;;;;;69.82;66.38;;;;;;;27.19;40.00;101359.16;4881724;29;20033;-67
2022/08/05 02:12:43;;;;;;;72.03;68.45;;;;;;;27.17;40.05;101364.22;4881999;29;20427;-67
2022/08/05 02:15:12;;;;;;;66.75;63.17;;;;;;;27.15;40.01;101362.94;4881629;29;20036;-67
2022/08/05 02:17:49;;;;;;;68.30;64.63;;;;;;;27.12;40.26;101356.09;4881516;29;20067;-67
2022/08/05 02:20:20;;;;;;;70.90;67.30;;;;;;;27.10;40.11;101369.50;4882095;29;20064;-67
2022/08/05 02:22:48;;;;;;;72.05;67.90;;;;;;;27.09;40.35;101375.38;4881401;29;20462;-67
2022/08/05 02:25:18;;;;;;;;;;;;;;;27.06;40.12;101401.81;4881941;29;20591;-67
2022/08/05 02:27:47;;;;;;;69.53;65.80;;;;;;;27.03;40.06;101405.25;4880885;29;19912;-67
2022/08/05 02:30:14;;;;;;;68.35;64.75;;;;;;;27.00;40.02;101408.72;4881377;29;20069;-67
2022/08/05 02:32:42;;;;;;;70.22;66.53;;;;;;;26.98;39.90;101417.38;4881250;29;20033;-67
2022/08/05 02:35:12;;;;;;;71.82;67.90;;;;;;;26.97;40.47;101417.72;4881299;29;20041;-67
2022/08/05 02:37:40;;;;;;;67.60;63.83;;;;;;;26.96;40.29;101416.09;4881704;29;20403;-67
2022/08/05 02:40:07;;;;;;;67.85;64.20;;;;;;;26.93;40.23;101406.47;4881454;29;20029;-67
2022/08/05 02:42:33;;;;;;;66.63;63.33;;;;;;;26.91;40.11;101414.34;4881323;29;20124;-67
2022/08/05 02:45:00;;;;;;;70.00;66.40;;;;;;;26.90;39.94;101409.13;4881539;29;20069;-67
2022/08/05 02:47:28;;;;;;;67.72;64.53;;;;;;;26.87;40.33;101396.75;4881078;29;20037;-67
2022/08/05 02:49:54;;;;;;;68.50;64.78;;;;;;;26.87;40.34;101398.72;4881421;29;20403;-67
2022/08/05 02:52:20;;;;;;;70.82;67.20;;;;;;;26.84;40.39;101389.13;4881001;29;20025;-67
2022/08/05 02:54:46;;;;;;;69.10;65.60;;;;;;;26.82;40.31;101390.63;4895598;29;20056;-67
2022/08/05 02:57:14;;;;;;;67.88;64.38;;;;;;;26.80;40.54;101399.25;4880663;29;20040;-67
2022/08/05 02:59:48;;;;;;;64.95;61.75;;;;;;;26.79;40.53;101400.41;4881045;29;20052;-67
2022/08/05 03:02:18;;;;;;;65.95;62.65;;;;;;;26.77;40.42;101394.38;4880725;29;20090;-67
2022/08/05 03:04:45;;;;;;;63.33;60.13;;;;;;;26.74;40.32;101400.63;4880578;29;20033;-67
2022/08/05 03:07:12;;;;;;;70.35;67.03;;;;;;;26.72;40.56;101402.91;4880746;29;20045;-68
2022/08/05 03:09:41;;;;;;;64.65;61.50;;;;;;;26.71;40.62;101412.34;4880703;29;20448;-67
2022/08/05 03:12:07;;;;;;;67.82;64.35;;;;;;;26.68;40.61;101418.56;4880585;29;20041;-66
2022/08/05 03:14:33;;;;;;;67.20;63.78;;;;;;;26.66;40.88;101413.38;4880856;29;20382;-67
2022/08/05 03:16:58;;;;;;;67.88;64.28;;;;;;;26.63;40.76;101422.34;4880997;29;20148;-66
2022/08/05 03:19:23;;;;;;;69.55;66.20;;;;;;;26.62;40.48;101431.81;4880807;29;20033;-66
2022/08/05 03:21:49;;;;;;;68.50;65.10;;;;;;;26.61;40.69;101446.00;4880384;29;20385;-67
2022/08/05 03:24:17;;;;;;;68.75;65.13;;;;;;;26.59;40.99;101445.53;4880670;29;20105;-67
2022/08/05 03:26:42;;;;;;;75.45;71.85;;;;;;;26.57;40.54;101448.63;4880407;29;20044;-67
2022/08/05 03:29:08;;;;;;;69.07;65.78;;;;;;;26.56;40.53;101433.16;4880361;29;20037;-67
2022/08/05 03:31:33;;;;;;;65.53;62.20;;;;;;;26.54;40.92;101438.22;4880102;29;20048;-66
2022/08/05 03:33:59;;;;;;;67.43;63.85;;;;;;;26.52;40.67;101438.53;4880896;29;20084;-66
2022/08/05 03:36:24;;;;;;;65.68;62.47;;;;;;;26.50;40.91;101428.91;4880687;29;20044;-67
2022/08/05 03:38:50;;;;;;;68.90;65.30;;;;;;;26.48;41.06;101428.44;4879921;29;20033;-67
2022/08/05 03:41:16;;;;;;;66.82;63.42;;;;;;;26.46;41.25;101430.72;4880173;29;20033;-67
2022/08/05 03:43:41;;;;;;;66.07;62.63;;;;;;;26.44;40.95;101430.25;4880498;29;20041;-67
2022/08/05 03:46:06;;;;;;;69.65;66.15;;;;;;;26.43;40.69;101425.84;4880328;29;20469;-67
2022/08/05 03:48:32;;;;;;;73.55;69.30;;;;;;;26.41;40.84;101420.66;4894476;29;20094;-66
2022/08/05 03:51:19;;;;;;;66.55;63.25;;;;;;;26.39;41.04;101416.59;4879980;29;20037;-66
2022/08/05 03:53:51;;;;;;;64.03;60.97;;;;;;;26.37;40.91;101402.28;4879874;29;20060;-66
2022/08/05 03:56:32;;;;;;;67.53;63.38;;;;;;;26.36;40.74;101397.84;4880221;29;20025;-66
2022/08/05 03:59:00;;;;;;;70.93;67.25;;;;;;;26.32;41.14;101400.50;4880399;29;20084;-66
2022/08/05 04:01:30;;;;;;;65.03;61.78;;;;;;;26.30;41.24;101400.81;4879746;29;20549;-67
2022/08/05 04:03:57;;;;;;;68.32;64.82;;;;;;;26.29;41.46;101392.88;4894280;29;20047;-66
2022/08/05 04:06:22;;;;;;;66.43;63.03;;;;;;;26.28;41.18;101394.00;4880014;29;20041;-66
2022/08/05 04:08:49;;;;;;;70.20;66.25;;;;;;;26.25;41.32;101395.47;4879855;29;20447;-67
2022/08/05 04:11:15;;;;;;;67.78;64.15;;;;;;;26.24;41.54;101390.28;4879699;29;20036;-66
2022/08/05 04:13:41;;;;;;;66.63;63.20;;;;;;;26.22;41.49;101396.16;4879504;29;20052;-66
2022/08/05 04:16:08;;;;;;;67.47;63.88;;;;;;;26.21;41.48;101402.03;4880018;29;20032;-67
2022/08/05 04:18:34;;;;;;;64.65;61.45;;;;;;;26.19;41.71;101398.78;4878709;29;20060;-66
2022/08/05 04:21:00;;;;;;;64.53;61.28;;;;;;;26.17;41.36;101412.94;4879527;29;20076;-66
2022/08/05 04:23:28;;;;;;;64.93;61.83;;;;;;;26.15;41.46;101414.41;4879908;29;20064;-66
2022/08/05 04:25:53;;;;;;;64.50;61.35;;;;;;;26.13;41.51;101414.75;4879669;29;20439;-67
2022/08/05 04:28:19;;;;;;;66.63;63.28;;;;;;;26.11;41.05;101406.78;4879716;29;20514;-67
2022/08/05 04:30:45;;;;;;;65.93;62.40;;;;;;;26.09;41.45;101414.59;4879552;29;20039;-67
2022/08/05 04:33:12;;;;;;;67.97;64.57;;;;;;;26.07;41.68;101416.09;4879486;29;20085;-66
2022/08/05 04:35:37;;;;;;;62.38;59.15;;;;;;;26.06;41.50;101411.69;4880320;29;20355;-68
2022/08/05 04:38:03;;;;;;;67.18;63.60;;;;;;;26.04;41.54;101405.69;4879964;29;20480;-67
2022/08/05 04:40:28;;;;;;;63.53;60.33;;;;;;;26.02;41.26;101410.72;4879250;29;20052;-66
2022/08/05 04:42:53;;;;;;;64.88;61.53;;;;;;;26.01;41.14;101420.19;4879360;29;20037;-66
2022/08/05 04:45:19;;;;;;;66.88;63.42;;;;;;;25.98;41.20;101413.38;4879520;29;20118;-66
2022/08/05 04:47:44;;;;;;;64.95;61.55;;;;;;;25.96;41.03;101412.06;4879719;29;20116;-66
2022/08/05 04:50:10;;;;;;;64.95;61.65;;;;;;;25.94;41.38;101426.22;4879861;29;20030;-67
2022/08/05 04:52:35;;;;;;;63.45;60.13;;;;;;;25.93;41.31;101426.53;4882792;29;20121;-68
2022/08/05 04:55:00;;;;;;;62.42;59.15;;;;;;;25.90;41.31;101422.47;4883309;29;20056;-67
2022/08/05 04:57:26;;;;;;;63.83;60.28;;;;;;;25.88;41.16;101417.28;4883043;29;20418;-67
2022/08/05 04:59:51;;;;;;;62.90;59.67;;;;;;;25.86;41.34;101414.03;4883221;29;20033;-66
2022/08/05 05:02:16;;;;;;;64.03;60.75;;;;;;;25.84;41.17;101407.19;4883130;29;20041;-67
2022/08/05 05:04:42;;;;;;;61.80;58.60;;;;;;;25.82;41.48;101403.91;4882883;29;20029;-67
2022/08/05 05:07:07;;;;;;;63.13;59.80;;;;;;;25.80;41.77;101412.53;4882784;29;20060;-68
2022/08/05 05:09:33;;;;;;;63.55;60.08;;;;;;;25.79;41.61;101421.19;4883063;29;20467;-67
2022/08/05 05:11:58;;;;;;;65.95;61.92;;;;;;;25.77;41.56;101421.50;4882712;29;20040;-68
2022/08/05 05:14:23;;;;;;;64.60;61.28;;;;;;;25.74;41.71;101415.84;4897608;29;20088;-68
2022/08/05 05:16:49;;;;;;;64.00;60.70;;;;;;;25.73;41.47;101423.34;4882633;29;20041;-68
2022/08/05 05:19:14;;;;;;;63.53;60.15;;;;;;;25.71;41.39;101424.81;4882585;29;20075;-68
2022/08/05 05:21:39;;;;;;;64.68;61.15;;;;;;;25.69;41.48;101436.19;4882581;29;20064;-68
2022/08/05 05:24:08;;;;;;;65.00;61.72;;;;;;;25.67;41.35;101439.28;4882757;29;20398;-68
2022/08/05 05:26:33;;;;;;;63.78;60.58;;;;;;;25.65;41.45;101436.03;4882553;29;20041;-68
2022/08/05 05:28:59;;;;;;;64.28;61.08;;;;;;;25.63;41.36;101440.28;4882899;29;20047;-68
2022/08/05 05:31:24;;;;;;;61.08;58.08;;;;;;;25.61;41.70;101437.84;4882146;29;20478;-68
2022/08/05 05:33:49;;;;;;;65.95;62.50;;;;;;;25.60;41.46;101443.69;4882343;29;20081;-68
2022/08/05 05:36:15;;;;;;;63.17;59.95;;;;;;;25.58;41.94;101449.56;4882284;29;20029;-68
2022/08/05 05:38:40;;;;;;;65.57;62.40;;;;;;;25.57;41.90;101455.41;4881965;29;20430;-68
2022/08/05 05:41:05;;;;;;;65.50;62.03;;;;;;;25.54;42.06;101454.09;4882463;29;20076;-67
2022/08/05 05:43:31;;;;;;;62.67;59.67;;;;;;;25.52;41.90;101461.91;4882388;29;20041;-67
2022/08/05 05:45:56;;;;;;;63.22;59.85;;;;;;;25.51;41.97;101468.59;4882052;29;20037;-67
2022/08/05 05:48:21;;;;;;;61.83;58.58;;;;;;;25.48;41.56;101470.06;4882091;29;20052;-67
2022/08/05 05:50:47;;;;;;;61.60;58.35;;;;;;;25.47;41.70;101467.63;4882116;29;20124;-68
2022/08/05 05:53:12;;;;;;;62.05;58.33;;;;;;;25.45;42.00;101470.72;4882589;29;20065;-67
2022/08/05 05:55:37;;;;;;;59.67;56.67;;;;;;;25.42;41.68;101473.31;4881959;29;20037;-67
2022/08/05 05:58:03;;;;;;;68.82;64.97;;;;;;;25.40;41.97;101470.88;4881771;29;20076;-67
2022/08/05 06:00:28;;;;;;;62.72;59.33;;;;;;;25.40;41.98;101478.34;4881563;29;20041;-67
2022/08/05 06:02:54;;;;;;;63.90;60.47;;;;;;;25.38;41.94;101475.13;4881392;29;20471;-67
2022/08/05 06:05:20;;;;;;;60.17;56.85;;;;;;;25.37;41.79;101479.00;4881778;29;20070;-67
2022/08/05 06:07:46;;;;;;;59.58;56.67;;;;;;;25.34;41.96;101477.69;4881418;29;20029;-68
2022/08/05 06:10:12;;;;;;;59.50;56.40;;;;;;;25.33;41.78;101478.06;4881393;29;20081;-67
2022/08/05 06:12:38;;;;;;;62.22;58.78;;;;;;;25.31;41.84;101477.56;4881402;29;20061;-68
2022/08/05 06:15:05;;;;;;;64.35;61.03;;;;;;;25.29;41.67;101477.88;4882031;29;20033;-67
2022/08/05 06:17:30;;;;;;;61.95;58.67;;;;;;;25.28;42.06;101472.69;4882035;29;20029;-67
2022/08/05 06:19:56;;;;;;;62.08;58.97;;;;;;;25.26;41.94;101473.81;4881808;29;20037;-68
2022/08/05 06:22:24;;;;;;;59.70;56.85;;;;;;;25.25;42.28;101482.44;4881369;29;20471;-68
2022/08/05 06:24:49;;;;;;;59.97;56.83;;;;;;;25.25;42.36;101479.69;4880256;29;20033;-67
2022/08/05 06:27:15;;;;;;;61.70;58.42;;;;;;;25.22;42.11;101480.28;4881310;29;20052;-67
2022/08/05 06:29:40;;;;;;;59.00;56.00;;;;;;;25.22;41.97;101485.81;4881896;29;20111;-68
2022/08/05 06:32:06;;;;;;;60.00;56.58;;;;;;;25.20;42.34;101488.94;4881294;29;20037;-67
2022/08/05 06:34:32;;;;;;;61.45;57.85;;;;;;;25.19;42.38;101489.25;4881771;29;20036;-67
2022/08/05 06:36:57;;;;;;;60.42;57.33;;;;;;;25.18;42.40;101484.88;4880954;29;20037;-68
2022/08/05 06:39:23;;;;;;;64.53;61.20;;;;;;;25.16;42.06;101489.88;4881136;29;20033;-68
2022/08/05 06:41:48;;;;;;;58.55;55.78;;;;;;;25.15;42.45;101497.34;4881516;29;20044;-68
2022/08/05 06:44:14;;;;;;;64.57;61.38;;;;;;;25.15;41.92;101496.53;4881058;29;20040;-68
2022/08/05 06:46:39;;;;;;;59.35;56.35;;;;;;;25.14;42.15;101503.19;4881573;29;20035;-68
2022/08/05 06:49:04;;;;;;;59.55;56.53;;;;;;;25.14;42.55;101508.72;4879734;29;20045;-67
2022/08/05 06:51:30;;;;;;;58.13;55.28;;;;;;;25.12;42.12;101508.22;4881042;29;20469;-68
2022/08/05 06:54:00;;;;;;;57.17;53.97;;;;;;;25.11;42.45;101510.19;4881126;29;20045;-68
2022/08/05 06:56:26;;;;;;;57.53;54.65;;;;;;;25.09;42.26;101514.41;4881093;29;20065;-68
2022/08/05 06:58:52;;;;;;;57.20;54.25;;;;;;;25.09;42.39;101508.88;4880849;29;20052;-67
2022/08/05 07:01:18;;;;;;;58.13;55.42;;;;;;;25.08;42.53;101526.63;4880466;29;20394;-68
2022/08/05 07:03:43;;;;;;;59.15;56.25;;;;;;;25.08;42.55;101526.63;4881177;29;20493;-67
2022/08/05 07:06:08;;;;;;;55.97;53.13;;;;;;;25.07;42.47;101533.25;4880325;29;20080;-68
2022/08/05 07:08:34;;;;;;;61.00;57.80;;;;;;;25.05;42.35;101533.59;4880644;29;20041;-68
2022/08/05 07:10:59;;;;;;;60.60;57.45;;;;;;;25.03;42.02;101536.69;4880530;29;20037;-67
2022/08/05 07:18:52;;;;;;;58.75;55.85;;;;;;;24.99;42.37;101549.50;4880470;29;20093;-67
2022/08/05 07:21:18;;;;;;;59.92;56.78;;;;;;;25.00;42.50;101547.56;4880321;29;20048;-68
2022/08/05 07:23:43;;;;;;;58.60;55.80;;;;;;;24.99;42.38;101556.97;4880357;29;20087;-68
2022/08/05 07:26:09;;;;;;;60.20;56.67;;;;;;;24.99;42.48;101554.22;4880282;29;20168;-66
2022/08/05 07:28:34;;;;;;;60.08;57.00;;;;;;;25.00;42.63;101558.63;4880284;29;20458;-66
2022/08/05 07:30:59;;;;;;;61.55;58.47;;;;;;;25.00;42.48;101561.41;4880299;29;20030;-67
2022/08/05 07:33:25;;;;;;;57.20;54.38;;;;;;;24.99;42.58;101562.50;4880183;29;20045;-67
2022/08/05 07:35:50;;;;;;;56.95;54.08;;;;;;;24.99;42.53;101568.84;4880733;29;20162;-67
2022/08/05 07:38:16;;;;;;;60.50;57.50;;;;;;;25.00;42.61;101569.69;4880095;29;20530;-67
2022/08/05 07:40:43;;;;;;;57.22;54.63;;;;;;;24.99;42.61;101577.13;4880117;29;20033;-68
2022/08/05 07:43:09;;;;;;;58.00;55.17;;;;;;;24.99;42.60;101574.38;4879950;29;20072;-67
2022/08/05 07:45:34;;;;;;;58.17;55.45;;;;;;;25.01;42.87;101579.59;4880834;29;20065;-68
2022/08/05 07:47:59;;;;;;;55.90;52.85;;;;;;;25.01;42.54;101587.88;4880033;29;20068;-68
2022/08/05 07:50:25;;;;;;;56.03;53.20;;;;;;;25.01;42.98;101588.69;4880117;29;20029;-67
2022/08/05 07:52:50;;;;;;;56.63;53.92;;;;;;;25.02;42.49;101595.03;4879444;29;20066;-67
2022/08/05 07:55:16;;;;;;;54.95;52.25;;;;;;;25.02;42.22;101586.75;4880653;29;20068;-68
2022/08/05 07:57:41;;;;;;;56.00;53.30;;;;;;;25.02;42.35;101600.56;4879913;29;20048;-66
2022/08/05 08:00:07;;;;;;;55.92;52.88;;;;;;;25.03;42.72;101591.16;4879835;29;20037;-68
2022/08/05 08:02:33;;;;;;;57.53;54.40;;;;;;;25.03;42.28;101599.44;4879684;29;20037;-68
2022/08/05 08:04:59;;;;;;;56.83;53.17;;;;;;;25.03;42.90;101602.22;4879827;29;20393;-67
2022/08/05 08:07:25;;;;;;;56.47;53.58;;;;;;;25.03;42.67;101599.44;4879703;29;20057;-66
2022/08/05 08:09:51;;;;;;;55.63;52.78;;;;;;;25.04;42.92;101601.88;4879784;29;20445;-67
2022/08/05 08:12:16;;;;;;;59.70;56.80;;;;;;;25.05;42.27;101611.00;4879669;29;20040;-67
2022/08/05 08:14:42;;;;;;;57.85;54.95;;;;;;;25.05;42.78;101609.03;4879738;29;20033;-67
2022/08/05 08:17:10;;;;;;;53.80;51.20;;;;;;;25.05;42.40;101611.81;4893987;29;20483;-68
2022/08/05 08:19:36;;;;;;;55.55;52.75;;;;;;;25.07;42.96;101610.66;4879605;29;20048;-68
2022/08/05 08:22:02;;;;;;;56.70;53.80;;;;;;;25.05;42.71;101611.81;4879191;29;20041;-68
2022/08/05 08:24:29;;;;;;;55.33;52.38;;;;;;;25.06;42.64;101615.38;4879329;29;20458;-68
2022/08/05 08:26:54;;;;;;;56.15;53.35;;;;;;;25.08;42.50;101615.06;4882733;29;20537;-68
2022/08/05 08:29:19;;;;;;;57.40;54.47;;;;;;;25.10;42.76;101615.53;4883818;29;20124;-69
2022/08/05 08:31:45;;;;;;;57.35;54.33;;;;;;;25.11;42.78;101620.75;4882991;29;20490;-69
2022/08/05 08:34:10;;;;;;;56.78;53.97;;;;;;;25.14;42.10;101622.06;4883090;29;20037;-68
2022/08/05 08:36:35;;;;;;;55.15;52.33;;;;;;;25.14;42.38;101619.31;4883325;29;20041;-69
2022/08/05 08:39:01;;;;;;;57.60;54.70;;;;;;;25.16;42.23;101630.88;4882799;29;20033;-68
2022/08/05 08:41:31;;;;;;;59.05;55.45;;;;;;;25.16;42.13;101631.72;4883339;29;20453;-69
2022/08/05 08:43:57;;;;;;;57.72;55.03;;;;;;;25.18;42.29;101634.97;4883181;29;20029;-69
2022/08/05 08:46:25;;;;;;;59.30;56.22;;;;;;;25.18;41.74;101646.03;4883369;29;20064;-69
2022/08/05 08:48:53;;;;;;;57.72;54.92;;;;;;;25.19;41.84;101642.13;4883407;29;20037;-68
2022/08/05 08:51:19;;;;;;;55.88;52.92;;;;;;;25.23;41.94;101642.31;4883024;29;20040;-70
2022/08/05 08:53:45;;;;;;;60.60;57.70;;;;;;;25.24;41.93;101649.47;4883007;29;20490;-68
2022/08/05 08:56:10;;;;;;;56.35;53.65;;;;;;;25.27;41.84;101654.34;4883456;29;20037;-67
2022/08/05 08:58:36;;;;;;;57.60;54.95;;;;;;;25.29;41.80;101652.06;4883212;29;20048;-67
2022/08/05 09:01:01;;;;;;;55.60;52.83;;;;;;;25.32;41.27;101653.38;4882069;29;20100;-67
2022/08/05 09:03:27;;;;;;;57.63;54.88;;;;;;;25.34;41.30;101654.69;4882074;29;20033;-68
2022/08/05 09:05:53;;;;;;;59.65;56.60;;;;;;;25.37;41.31;101648.50;4882369;29;20037;-68
2022/08/05 09:08:18;;;;;;;60.67;57.58;;;;;;;25.38;41.42;101660.41;4882957;29;20065;-68
2022/08/05 09:10:44;;;;;;;57.60;54.92;;;;;;;25.40;40.82;101661.72;4883052;29;20037;-67
2022/08/05 09:13:14;;;;;;;57.53;54.88;;;;;;;25.44;40.79;101665.47;4882533;29;20033;-67
2022/08/05 09:15:39;;;;;;;58.67;55.97;;;;;;;25.46;40.81;101660.44;4882364;29;20084;-68
2022/08/05 09:18:08;;;;;;;60.40;57.15;;;;;;;25.52;40.29;101668.56;4881937;29;20037;-67
2022/08/05 09:20:35;;;;;;;60.65;57.42;;;;;;;25.57;40.29;101668.41;4882281;29;20037;-67
2022/08/05 09:23:01;;;;;;;59.45;56.65;;;;;;;25.61;40.34;101672.19;4882314;29;20040;-68
2022/08/05 09:25:26;;;;;;;61.45;58.35;;;;;;;25.66;39.98;101678.38;4897538;29;20101;-67
2022/08/05 09:27:52;;;;;;;60.05;57.05;;;;;;;25.71;40.18;101685.72;4882278;29;20049;-68
2022/08/05 09:30:17;;;;;;;64.55;61.50;;;;;;;25.74;39.91;101676.75;4882640;29;20070;-67
2022/08/05 09:32:43;;;;;;;60.67;57.83;;;;;;;25.79;39.77;101693.22;4882089;29;20045;-67
2022/08/05 09:35:14;;;;;;;61.20;58.10;;;;;;;25.86;39.73;101695.53;4896251;29;20073;-68
2022/08/05 09:37:50;;;;;;;60.83;58.03;;;;;;;25.91;40.32;101703.69;4881479;29;20070;-67
2022/08/05 09:40:32;;;;;;;59.67;56.75;;;;;;;25.94;39.86;101700.25;4882424;29;20123;-68
2022/08/05 09:42:58;;;;;;;60.75;57.95;;;;;;;26.00;39.79;101706.44;4881815;29;20025;-68
2022/08/05 09:45:38;;;;;;;58.33;55.53;;;;;;;26.04;39.63;101702.72;4882386;29;20033;-68
2022/08/05 09:48:28;;;;;;;61.28;58.38;;;;;;;26.09;39.43;101707.28;4881760;29;20029;-67
2022/08/05 09:50:59;;;;;;;65.88;62.88;;;;;;;26.13;38.98;101713.78;4882180;29;20077;-67
2022/08/05 09:53:25;;;;;;;63.35;60.20;;;;;;;26.17;39.41;101706.47;4881460;29;20140;-67
2022/08/05 09:55:56;;;;;;;68.68;64.45;;;;;;;26.22;39.08;101709.06;4881772;29;20128;-67
2022/08/05 09:58:22;;;;;;;62.38;59.47;;;;;;;26.25;39.21;101710.38;4881544;29;20060;-67
2022/08/05 10:00:56;;;;;;;61.40;58.47;;;;;;;26.29;38.88;101711.38;4881946;29;20068;-69
2022/08/05 10:03:22;;;;;;;63.80;60.88;;;;;;;26.31;38.86;101709.91;4882032;29;20052;-69
2022/08/05 10:06:07;;;;;;;63.70;60.45;;;;;;;26.36;38.19;101705.31;4881614;29;20116;-68
2022/08/05 10:08:33;;;;;;;62.17;58.88;;;;;;;26.40;38.14;101711.84;4881898;29;20486;-68
2022/08/05 10:11:03;;;;;;;61.20;58.40;;;;;;;26.45;38.04;101711.66;4881522;29;20045;-68
2022/08/05 10:13:38;;;;;;;63.40;60.40;;;;;;;26.48;38.15;101724.88;4881412;29;20482;-69
2022/08/05 10:16:05;;;;;;;61.30;58.50;;;;;;;26.51;37.90;101726.97;4881469;29;20482;-69
2022/08/05 10:18:32;;;;;;;64.07;61.08;;;;;;;26.54;38.06;101726.38;4881221;29;20036;-68
2022/08/05 10:21:05;;;;;;;65.22;62.28;;;;;;;26.58;37.27;101724.56;4881253;29;20045;-69
2022/08/05 10:23:34;;;;;;;66.80;63.70;;;;;;;26.59;37.75;101726.19;4881087;29;20044;-68
2022/08/05 10:26:08;;;;;;;59.42;56.70;;;;;;;26.62;37.68;101717.22;4880241;29;20033;-70
2022/08/05 10:28:34;;;;;;;62.45;59.35;;;;;;;26.64;37.70;101717.72;4881383;29;20037;-69
2022/08/05 10:31:00;;;;;;;63.15;60.25;;;;;;;26.67;37.79;101730.91;4880907;29;20045;-66
2022/08/05 10:33:30;;;;;;;67.38;64.18;;;;;;;26.70;37.46;101729.44;4880810;29;20092;-66
2022/08/05 10:35:56;;;;;;;64.85;61.75;;;;;;;26.73;37.94;101726.00;4881499;29;20033;-66
2022/08/05 10:38:24;;;;;;;64.15;61.13;;;;;;;26.78;37.24;101731.38;4881214;29;20127;-65
2022/08/05 10:40:53;;;;;;;64.00;61.13;;;;;;;26.82;37.48;101732.34;4881105;29;20036;-66
2022/08/05 10:43:36;;;;;;;65.03;61.90;;;;;;;26.85;37.41;101731.69;4880867;29;20052;-65
2022/08/05 10:46:07;;;;;;;64.93;61.95;;;;;;;26.88;37.36;101735.75;4881351;29;20085;-67
2022/08/05 10:48:43;;;;;;;68.43;65.10;;;;;;;26.92;36.76;101739.50;4880213;29;20037;-66
2022/08/05 10:51:12;;;;;;;63.35;60.30;;;;;;;26.95;36.38;101736.88;4881282;29;20048;-66
2022/08/05 10:53:44;;;;;;;68.15;64.93;;;;;;;26.98;36.79;101727.91;4880357;29;20057;-66
2022/08/05 10:56:17;;;;;;;65.00;61.97;;;;;;;27.02;36.65;101725.28;4881276;29;20041;-68
2022/08/05 10:58:53;;;;;;;65.45;62.35;;;;;;;27.05;36.78;101735.72;4895797;29;20065;-66
2022/08/05 11:01:37;;;;;;;64.30;61.40;;;;;;;27.09;37.03;101736.69;4880633;29;20041;-65
2022/08/05 11:04:10;;;;;;;62.88;59.22;;;;;;;27.12;36.75;101733.25;4881162;29;20029;-66
2022/08/05 11:07:05;;;;;;;67.45;64.25;;;;;;;27.16;37.62;101748.06;4894526;29;20513;-67
2022/08/05 11:09:50;;;;;;;69.72;66.53;;;;;;;27.18;37.53;101753.31;4875688;29;20056;-67
2022/08/05 11:12:33;;;;;;;65.50;62.50;;;;;;;27.20;37.82;101759.34;4880261;29;20037;-67
2022/08/05 11:15:06;;;;;;;68.22;64.82;;;;;;;27.23;37.49;101766.22;4880448;29;20112;-66
2022/08/05 11:17:36;;;;;;;66.28;63.13;;;;;;;27.24;37.61;101781.69;4880190;29;20029;-67